Time;durP1;ratioP1;P1;durP2;ratioP2;P2;SDS_P1;SDS_P2;PMS_P1;PMS_P2;Temp;Humidity;BMP_temperature;BMP_pressure;BME280_temperature;BME280_humidity;BME280_pressure;Samples;Min_cycle;Max_cycle;Signal;HPM_P1;HPM_P2
2023/09/01 00:01:30;;;;;;;3.50;3.20;;;12.90;99.90;;;-141.84;95.26;19824.00;5023023;28;20324;-66
2023/09/01 00:03:59;;;;;;;4.05;3.22;;;12.90;99.90;;;-141.84;95.51;19795.53;5033175;28;20304;-67
2023/09/01 00:06:27;;;;;;;3.47;3.10;;;12.80;99.90;;;-141.84;95.73;19807.75;5037107;28;20609;-67
2023/09/01 00:08:55;;;;;;;4.10;3.07;;;12.80;99.90;;;-141.84;96.21;19777.25;5018307;28;20375;-67
2023/09/01 00:11:23;;;;;;;3.25;2.95;;;12.80;99.90;;;-141.84;96.33;19834.16;5022819;28;20818;-66
2023/09/01 00:13:52;;;;;;;3.72;3.42;;;12.80;99.90;;;-141.84;96.17;19799.63;5027674;28;20308;-66
2023/09/01 00:16:20;;;;;;;3.83;3.42;;;12.90;99.90;;;-141.84;96.21;19801.66;5042787;28;20287;-67
2023/09/01 00:18:50;;;;;;;3.95;3.13;;;12.90;99.90;;;-141.84;96.48;19795.53;5018852;28;20229;-66
2023/09/01 00:21:18;;;;;;;4.38;3.45;;;12.90;99.90;;;-141.84;96.40;19830.09;5022444;28;20868;-66
2023/09/01 00:23:46;;;;;;;4.53;3.00;;;13.00;99.90;;;-141.84;95.89;19860.59;5021722;28;20206;-66
2023/09/01 00:26:14;;;;;;;3.55;2.95;;;13.00;99.90;;;-141.84;95.57;19846.34;5036842;28;20269;-66
2023/09/01 00:28:42;;;;;;;3.50;3.20;;;13.00;99.90;;;-141.84;95.19;19848.38;5034849;28;20260;-66
2023/09/01 00:31:11;;;;;;;3.30;3.00;;;13.00;99.90;;;-141.84;94.73;19864.66;5042388;28;20225;-67
2023/09/01 00:33:39;;;;;;;3.28;2.97;;;13.00;99.90;;;-141.84;94.49;19864.66;5029224;28;20229;-66
2023/09/01 00:36:08;;;;;;;3.95;3.20;;;13.00;99.90;;;-141.84;94.32;19834.16;5020562;28;20301;-67
2023/09/01 00:38:37;;;;;;;3.30;3.00;;;12.90;99.90;;;-141.84;94.24;19868.72;5014751;28;20309;-66
2023/09/01 00:41:08;;;;;;;3.47;2.90;;;12.90;99.90;;;-141.84;93.91;19870.75;5022001;28;20249;-67
2023/09/01 00:43:36;;;;;;;2.97;2.75;;;12.80;99.90;;;-141.84;93.94;19842.28;5022467;28;20323;-67
2023/09/01 00:46:05;;;;;;;4.00;3.05;;;12.70;99.90;;;-141.84;93.96;19836.19;5022546;28;20309;-67
2023/09/01 00:48:34;;;;;;;4.43;3.20;;;12.70;99.90;;;-141.84;93.89;19803.69;5015380;28;20264;-66
2023/09/01 00:51:02;;;;;;;3.65;3.15;;;12.70;99.90;;;-141.84;94.30;19793.50;5026642;28;20241;-66
2023/09/01 00:53:33;;;;;;;3.53;3.00;;;12.60;99.90;;;-141.84;94.78;19801.66;5023012;28;20193;-67
2023/09/01 00:56:03;;;;;;;4.57;3.10;;;12.50;99.90;;;-141.84;95.05;19752.88;5034854;28;20233;-66
2023/09/01 00:58:31;;;;;;;3.40;3.10;;;12.50;99.90;;;-141.84;95.35;19728.47;5035727;28;20264;-65
2023/09/01 01:00:59;;;;;;;4.30;3.20;;;12.40;99.90;;;-141.84;95.77;19746.78;5041918;28;20574;-67
2023/09/01 01:03:28;;;;;;;3.45;3.10;;;12.40;99.90;;;-141.84;95.90;19748.81;5042422;28;20325;-66
2023/09/01 01:06:16;;;;;;;4.43;3.43;;;12.30;99.90;;;-141.84;95.92;19793.50;5040991;28;20226;-66
2023/09/01 01:09:09;;;;;;;3.38;3.08;;;12.40;99.90;;;-141.84;95.78;19752.88;5015169;28;20228;-66
2023/09/01 01:11:48;;;;;;;4.43;3.40;;;12.40;99.90;;;-141.84;95.71;19750.84;5021737;28;20259;-67
2023/09/01 01:14:23;;;;;;;3.83;3.53;;;12.30;99.90;;;-141.84;95.87;19752.88;5030211;28;20256;-67
2023/09/01 01:16:53;;;;;;;3.20;2.90;;;12.30;99.90;;;-141.84;96.03;19754.91;5034222;28;20260;-67
2023/09/01 01:19:43;;;;;;;3.80;3.40;;;12.20;99.90;;;-141.84;96.00;19756.94;5022451;28;20737;-67
2023/09/01 01:22:13;;;;;;;3.60;3.30;;;12.20;99.90;;;-141.84;96.13;19758.97;5021837;28;20226;-65
2023/09/01 01:24:43;;;;;;;4.15;3.17;;;12.20;99.90;;;-141.84;96.54;19750.84;5016727;28;20313;-68
2023/09/01 01:27:11;;;;;;;3.97;3.53;;;12.10;99.90;;;-141.84;96.80;19730.50;5041447;28;20317;-66
2023/09/01 01:29:39;;;;;;;3.50;3.20;;;12.10;99.90;;;-141.84;96.74;19716.28;5031431;28;20214;-66
2023/09/01 01:32:08;;;;;;;3.50;3.17;;;12.20;99.90;;;-141.84;96.83;19720.34;5021440;28;20329;-67
2023/09/01 01:34:40;;;;;;;5.97;2.90;;;12.10;99.90;;;-141.84;97.05;19718.31;5015248;28;20258;-67
2023/09/01 01:37:18;;;;;;;3.33;3.03;;;12.10;99.90;;;-141.84;96.88;19722.38;5025205;28;20241;-66
2023/09/01 01:39:52;;;;;;;3.87;3.13;;;12.10;99.90;;;-141.84;97.02;19683.78;5030410;28;20308;-67
2023/09/01 01:42:21;;;;;;;4.85;3.03;;;12.20;99.90;;;-141.84;96.74;19695.97;5027105;28;20718;-66
2023/09/01 01:44:53;;;;;;;3.75;2.95;;;12.20;99.90;;;-141.84;97.02;19708.16;4998335;28;20561;-67
2023/09/01 01:47:23;;;;;;;5.50;3.20;;;12.10;99.90;;;-141.84;96.88;19732.53;5025184;28;20238;-67
2023/09/01 01:49:51;;;;;;;5.15;3.60;;;12.20;99.90;;;-141.84;96.66;19732.53;5008715;28;20323;-67
2023/09/01 01:52:19;;;;;;;4.10;3.37;;;12.20;99.90;;;-141.84;96.58;19716.28;5005530;28;20338;-66
2023/09/01 01:54:48;;;;;;;4.60;3.37;;;12.10;99.90;;;-141.84;96.69;19712.22;5004135;28;20717;-66
2023/09/01 01:57:17;;;;;;;4.43;3.60;;;12.10;99.90;;;-141.84;96.58;19728.47;5024770;28;20249;-66
2023/09/01 01:59:45;;;;;;;5.03;3.50;;;12.10;99.90;;;-141.84;96.74;19781.31;5025401;28;20669;-66
2023/09/01 02:02:13;;;;;;;5.13;3.70;;;12.00;99.90;;;-141.84;96.94;19687.84;5024694;28;20807;-66
2023/09/01 02:04:42;;;;;;;3.70;3.40;;;12.00;99.90;;;-141.84;96.98;19700.03;5016789;28;20233;-67
2023/09/01 02:07:10;;;;;;;3.45;3.15;;;12.00;99.90;;;-141.84;97.02;19698.00;5024686;28;20241;-67
2023/09/01 02:09:38;;;;;;;3.50;3.20;;;12.00;99.90;;;-141.84;96.83;19706.13;5024857;28;20291;-66
2023/09/01 02:12:08;;;;;;;4.87;3.53;;;11.90;99.90;;;-141.84;97.02;19683.78;5024848;28;20751;-67
2023/09/01 02:14:36;;;;;;;3.42;3.13;;;11.90;99.90;;;-141.84;96.96;19695.97;5028861;28;20278;-66
2023/09/01 02:17:05;;;;;;;3.47;3.20;;;11.90;99.90;;;-141.84;96.94;19700.03;5043249;28;20320;-66
2023/09/01 02:19:33;;;;;;;3.70;3.40;;;11.90;99.90;;;-141.84;96.88;19710.19;5024843;28;20625;-66
2023/09/01 02:22:02;;;;;;;4.37;3.53;;;11.90;99.90;;;-141.84;96.99;19691.91;5024667;28;20648;-67
2023/09/01 02:24:34;;;;;;;5.43;3.27;;;11.90;99.90;;;-141.84;96.94;19691.91;5029301;28;20229;-65
2023/09/01 02:27:04;;;;;;;4.30;3.40;;;11.90;99.90;;;-141.84;97.26;19687.84;5044771;28;20244;-67
2023/09/01 02:29:33;;;;;;;5.00;3.67;;;11.90;99.90;;;-141.84;97.46;19695.97;5045319;28;20216;-66
2023/09/01 02:32:03;;;;;;;4.87;3.77;;;11.90;99.90;;;-141.84;97.42;19700.03;5044662;28;20225;-66
2023/09/01 02:34:31;;;;;;;4.60;3.77;;;11.90;99.90;;;-141.84;97.42;19667.50;5025577;28;20310;-66
2023/09/01 02:36:59;;;;;;;5.77;4.33;;;11.90;99.90;;;-141.84;97.52;19702.06;5023945;28;20732;-67
2023/09/01 02:39:28;;;;;;;4.83;4.00;;;11.90;99.90;;;-141.84;97.73;19665.47;5024438;28;20271;-67
2023/09/01 02:41:56;;;;;;;4.90;4.40;;;11.90;99.90;;;-141.84;97.76;19691.91;5023631;28;20260;-66
2023/09/01 02:44:24;;;;;;;5.17;4.20;;;12.00;99.90;;;-141.84;97.88;19649.22;5005232;28;20227;-66
2023/09/01 02:46:53;;;;;;;5.13;4.60;;;11.90;99.90;;;-141.84;98.19;19657.34;5012980;28;20332;-66
2023/09/01 02:49:22;;;;;;;5.43;4.73;;;11.90;99.90;;;-141.84;98.41;19683.78;5024512;28;20690;-66
2023/09/01 02:51:50;;;;;;;5.07;4.67;;;12.00;99.90;;;-141.84;98.44;19657.34;5037056;28;20233;-68
2023/09/01 02:54:18;;;;;;;5.57;4.90;;;12.00;99.90;;;-141.84;98.44;19665.47;5042616;28;20229;-68
2023/09/01 02:56:46;;;;;;;7.00;4.33;;;12.00;99.90;;;-141.84;98.46;19653.28;5035654;28;20232;-68
2023/09/01 02:59:14;;;;;;;6.67;5.60;;;12.00;99.90;;;-141.84;98.66;19624.84;5043562;28;20314;-66
2023/09/01 03:01:43;;;;;;;6.73;5.23;;;12.00;99.90;;;-141.84;98.60;19667.50;5043277;28;20644;-67
2023/09/01 03:04:14;;;;;;;5.87;4.77;;;12.00;99.90;;;-141.84;98.71;19616.72;5044608;28;20237;-66
2023/09/01 03:06:43;;;;;;;5.60;4.60;;;12.00;99.90;;;-141.84;98.93;19665.47;5029656;28;20264;-65
2023/09/01 03:09:12;;;;;;;5.00;4.50;;;12.00;99.90;;;-141.84;98.95;19635.00;5023390;28;20276;-66
2023/09/01 03:11:40;;;;;;;6.67;4.90;;;12.00;99.90;;;-141.84;99.09;19626.88;5023892;28;20209;-66
2023/09/01 03:14:09;;;;;;;4.97;4.57;;;12.00;99.90;;;-141.84;98.89;19639.06;5030564;28;20736;-66
2023/09/01 03:16:37;;;;;;;6.63;4.40;;;12.10;99.90;;;-141.84;98.72;19669.53;5035374;28;20328;-67
2023/09/01 03:19:05;;;;;;;4.73;3.90;;;12.10;99.90;;;-141.84;98.65;19655.31;5026087;28;20233;-66
2023/09/01 03:21:35;;;;;;;5.10;4.57;;;12.20;99.90;;;-141.84;98.67;19673.59;5023402;28;20233;-66
2023/09/01 03:24:03;;;;;;;5.43;4.20;;;12.10;99.90;;;-141.84;98.64;19736.59;5031848;28;20241;-67
2023/09/01 03:26:32;;;;;;;5.30;4.80;;;12.10;99.90;;;-141.84;98.30;19681.75;5035985;28;20223;-68
2023/09/01 03:29:01;;;;;;;5.40;4.50;;;12.20;99.90;;;-141.84;98.12;19673.59;5042730;28;20229;-66
2023/09/01 03:31:31;;;;;;;5.50;4.73;;;12.20;99.90;;;-141.84;97.96;19671.56;5043304;28;20237;-67
2023/09/01 03:33:59;;;;;;;6.07;4.87;;;12.20;99.90;;;-141.84;97.67;19746.78;5042983;28;20768;-66
2023/09/01 03:36:27;;;;;;;5.80;4.63;;;12.20;99.90;;;-141.84;97.67;19695.97;5043078;28;20221;-67
2023/09/01 03:38:59;;;;;;;6.03;4.60;;;12.20;99.90;;;-141.84;97.32;19732.53;5037774;28;20214;-67
2023/09/01 03:41:27;;;;;;;6.55;4.32;;;12.30;99.90;;;-141.84;97.48;19716.28;5027898;28;20690;-66
2023/09/01 03:43:56;;;;;;;6.60;4.80;;;12.20;99.90;;;-141.84;97.43;19726.44;5005987;28;20245;-66
2023/09/01 03:46:24;;;;;;;6.03;4.82;;;12.30;99.90;;;-141.84;97.10;19720.34;5003070;28;20226;-66
2023/09/01 03:48:52;;;;;;;7.63;4.23;;;12.30;99.90;;;-141.84;97.16;19730.50;5003643;28;20245;-66
2023/09/01 03:51:21;;;;;;;5.20;4.70;;;12.30;99.90;;;-141.84;96.94;19730.50;5031917;28;20298;-67
2023/09/01 03:53:49;;;;;;;5.37;4.40;;;12.30;99.90;;;-141.84;97.00;19718.31;5042180;28;20649;-66
2023/09/01 03:56:22;;;;;;;6.47;4.82;;;12.30;99.90;;;-141.84;96.97;19712.22;5042530;28;20256;-67
2023/09/01 03:58:52;;;;;;;5.33;4.47;;;12.30;99.90;;;-141.84;97.37;19700.03;5035067;28;20791;-67
2023/09/01 04:01:20;;;;;;;5.00;4.40;;;12.30;99.90;;;-141.84;97.37;19724.41;5042504;28;20275;-67
2023/09/01 04:03:49;;;;;;;7.33;5.10;;;12.20;99.90;;;-141.84;97.10;19716.28;5042416;28;20240;-66
2023/09/01 04:06:17;;;;;;;9.70;4.93;;;12.30;99.90;;;-141.84;97.17;19704.09;5038856;28;20229;-67
2023/09/01 04:08:46;;;;;;;5.13;4.38;;;12.30;99.90;;;-141.84;97.33;19710.19;5014919;28;20622;-66
2023/09/01 04:11:14;;;;;;;5.27;4.67;;;12.30;99.90;;;-141.84;96.74;19702.06;5022316;28;20229;-65
2023/09/01 04:13:44;;;;;;;7.60;4.78;;;12.30;99.90;;;-141.84;96.83;19738.66;5022292;28;20324;-66
2023/09/01 04:16:12;;;;;;;4.90;4.40;;;12.20;99.90;;;-141.84;96.54;19734.56;5022686;28;20701;-66
2023/09/01 04:18:40;;;;;;;5.00;4.20;;;12.30;99.90;;;-141.84;96.36;19720.34;5014217;28;20284;-67
2023/09/01 04:21:08;;;;;;;6.95;4.70;;;12.20;99.90;;;-141.84;96.66;19691.91;5022737;28;20276;-66
2023/09/01 04:23:39;;;;;;;6.57;4.90;;;12.00;99.90;;;-141.84;96.87;19710.19;5022556;28;20245;-66
2023/09/01 04:26:08;;;;;;;5.57;4.43;;;12.20;99.90;;;-141.84;97.19;19695.97;5022094;28;20229;-66
2023/09/01 04:28:36;;;;;;;6.27;4.90;;;12.10;99.90;;;-141.84;97.22;19695.97;5000527;28;20234;-65
2023/09/01 04:31:16;;;;;;;6.18;4.75;;;12.20;99.90;;;-141.84;97.14;19677.66;5002883;28;20288;-67
2023/09/01 04:33:44;;;;;;;5.27;4.43;;;12.10;99.90;;;-141.84;97.12;19679.72;5002599;28;20222;-66
2023/09/01 04:36:12;;;;;;;6.80;4.70;;;12.10;99.90;;;-141.84;97.25;19687.84;5002426;28;20269;-67
2023/09/01 04:38:41;;;;;;;6.37;4.77;;;12.00;99.90;;;-141.84;97.36;19675.63;4995515;28;20674;-67
2023/09/01 04:41:09;;;;;;;6.13;4.80;;;12.00;99.90;;;-141.84;97.52;19683.78;5002203;28;20276;-66
2023/09/01 04:43:38;;;;;;;7.10;5.23;;;12.10;99.90;;;-141.84;97.73;19651.25;5002485;28;20326;-66
2023/09/01 04:46:08;;;;;;;7.10;5.20;;;12.10;99.90;;;-141.84;97.69;19681.75;5030165;28;20252;-67
2023/09/01 04:48:37;;;;;;;6.67;5.03;;;12.10;99.90;;;-141.84;97.78;19647.19;5034234;28;20225;-66
2023/09/01 04:51:05;;;;;;;7.27;4.87;;;12.00;99.90;;;-141.84;97.89;19659.38;5042116;28;20302;-67
2023/09/01 04:53:33;;;;;;;7.93;5.10;;;12.10;99.90;;;-141.84;98.10;19663.44;5040853;28;20661;-67
2023/09/01 04:56:02;;;;;;;8.80;5.07;;;12.10;99.90;;;-141.84;98.08;19659.38;5041824;28;20308;-67
2023/09/01 04:58:30;;;;;;;5.73;4.97;;;12.10;99.90;;;-141.84;97.83;19667.50;5039097;28;20734;-66
2023/09/01 05:00:59;;;;;;;5.97;5.37;;;12.10;99.90;;;-141.84;98.03;19667.50;5041401;28;20283;-67
2023/09/01 05:03:28;;;;;;;6.87;5.50;;;12.10;99.90;;;-141.84;97.85;19700.03;5041980;28;20217;-66
2023/09/01 05:05:58;;;;;;;6.20;5.23;;;12.20;99.90;;;-141.84;97.76;19691.91;5040794;28;20243;-68
2023/09/01 05:08:26;;;;;;;7.70;5.90;;;12.20;99.90;;;-141.84;97.52;19716.28;5022352;28;20222;-67
2023/09/01 05:10:54;;;;;;;9.33;5.70;;;12.30;99.90;;;-141.84;97.37;19704.09;5019159;28;20650;-67
2023/09/01 05:13:22;;;;;;;6.78;5.60;;;12.30;99.90;;;-141.84;97.37;19702.06;5026607;28;20265;-66
2023/09/01 05:15:51;;;;;;;6.07;4.90;;;12.30;99.90;;;-141.84;97.44;19712.22;5025520;28;20897;-67
2023/09/01 05:18:19;;;;;;;7.25;5.22;;;12.40;99.90;;;-141.84;97.53;19724.41;5025909;28;20253;-67
2023/09/01 05:20:49;;;;;;;9.02;5.40;;;12.40;99.90;;;-141.84;97.50;19732.53;5018008;28;20210;-68
2023/09/01 05:23:17;;;;;;;8.52;6.35;;;12.60;99.90;;;-141.84;97.33;19752.88;5028080;28;20660;-66
2023/09/01 05:25:52;;;;;;;7.43;5.80;;;12.70;99.90;;;-141.84;97.21;19781.31;5021722;28;20384;-67
2023/09/01 05:28:21;;;;;;;8.75;5.82;;;13.00;99.90;;;-141.84;96.76;19821.97;5033390;28;20283;-67
2023/09/01 05:30:49;;;;;;;6.68;6.00;;;13.20;99.90;;;-141.84;96.57;19838.22;5017976;28;20313;-65
2023/09/01 05:33:17;;;;;;;7.55;5.38;;;13.40;99.90;;;-141.84;95.94;19854.50;5016198;28;20227;-67
2023/09/01 05:35:45;;;;;;;7.80;5.80;;;13.60;99.90;;;-141.84;94.04;19878.88;5005978;28;20235;-67
2023/09/01 05:38:15;;;;;;;9.82;5.53;;;13.80;99.90;;;-141.84;92.60;19935.78;5005228;28;20292;-66
2023/09/01 05:40:43;;;;;;;6.18;5.57;;;13.90;99.90;;;-141.84;91.58;19939.84;5000487;28;20226;-67
2023/09/01 05:43:17;;;;;;;8.00;4.85;;;14.10;99.90;;;-141.84;91.53;20013.00;4985856;28;20295;-66
2023/09/01 05:45:45;;;;;;;5.20;4.68;;;14.30;99.90;;;-141.84;87.58;19984.56;4986394;28;20648;-67
2023/09/01 05:48:13;;;;;;;5.22;4.63;;;14.40;99.90;;;-141.84;86.01;20019.13;4986076;28;20262;-67
2023/09/01 05:50:43;;;;;;;5.57;4.45;;;14.50;99.90;;;-141.84;84.59;20088.22;4982175;28;20741;-66
2023/09/01 05:53:12;;;;;;;5.85;4.53;;;14.60;99.90;;;-141.84;86.00;20076.03;5006656;28;20254;-66
2023/09/01 05:55:41;;;;;;;5.50;4.60;;;14.70;99.90;;;-141.84;82.22;20096.34;5014304;28;20721;-68
2023/09/01 05:58:09;;;;;;;8.77;4.30;;;14.80;99.90;;;-141.84;82.21;20128.88;5024853;28;20232;-67
2023/09/01 06:00:37;;;;;;;6.68;4.00;;;15.00;99.90;;;-141.84;78.11;20169.53;5017823;28;20229;-68
2023/09/01 06:03:06;;;;;;;6.75;4.10;;;14.90;99.90;;;-141.84;78.96;20165.44;5025567;28;20217;-67
2023/09/01 06:05:34;;;;;;;5.07;3.90;;;14.80;99.90;;;-141.84;79.73;20143.09;5025524;28;20206;-67
2023/09/01 06:08:03;;;;;;;6.90;5.15;;;14.80;99.90;;;-141.84;78.31;20222.38;5024922;28;20672;-67
2023/09/01 06:10:32;;;;;;;8.05;5.30;;;14.90;99.90;;;-141.84;77.90;20208.13;5019607;28;20792;-66
2023/09/01 06:13:01;;;;;;;8.27;4.35;;;15.10;99.90;;;-141.84;77.92;20228.47;5024047;28;20729;-67
2023/09/01 06:15:30;;;;;;;6.55;4.32;;;15.10;99.90;;;-141.84;78.23;20191.88;5042538;28;20217;-67
2023/09/01 06:17:58;;;;;;;5.80;4.20;;;15.10;99.90;;;-141.84;77.81;20169.53;5036336;28;20574;-66
2023/09/01 06:20:26;;;;;;;7.55;4.30;;;15.10;99.90;;;-141.84;79.31;20191.88;5024546;28;20218;-67
2023/09/01 06:22:55;;;;;;;7.50;4.75;;;15.00;99.90;;;-141.84;78.79;20185.78;5017739;28;20232;-66
2023/09/01 06:25:24;;;;;;;7.97;4.63;;;15.00;99.90;;;-141.84;79.31;20141.06;5044188;28;20243;-67
2023/09/01 06:27:52;;;;;;;4.78;4.00;;;15.00;99.90;;;-141.84;79.31;20139.03;5044260;28;20236;-66
2023/09/01 06:30:23;;;;;;;6.55;4.50;;;14.90;99.90;;;-141.84;78.69;20147.16;5027689;28;20241;-66
2023/09/01 06:32:51;;;;;;;6.40;4.72;;;14.90;99.90;;;-141.84;79.51;20124.81;5017864;28;20449;-68
2023/09/01 06:35:19;;;;;;;5.32;4.53;;;14.80;99.90;;;-141.84;79.49;20143.09;5024522;28;20230;-67
2023/09/01 06:37:48;;;;;;;6.75;4.55;;;14.90;99.90;;;-141.84;79.38;20173.59;5035791;28;20229;-66
2023/09/01 06:40:16;;;;;;;7.55;4.78;;;14.90;99.90;;;-141.84;78.08;20165.44;5043901;28;20233;-67
2023/09/01 06:42:44;;;;;;;7.93;4.85;;;15.00;99.90;;;-141.84;78.43;20208.13;5018669;28;20222;-67
2023/09/01 06:45:13;;;;;;;8.65;4.97;;;15.00;99.90;;;-141.84;78.90;20175.63;5004791;28;20521;-66
2023/09/01 06:47:43;;;;;;;7.05;4.88;;;15.00;99.90;;;-141.84;78.36;20179.69;5005120;28;20290;-66
2023/09/01 06:50:11;;;;;;;6.97;4.93;;;15.00;99.90;;;-141.84;79.31;20139.03;5004390;28;20288;-67
2023/09/01 06:52:39;;;;;;;8.45;5.03;;;15.00;99.90;;;-141.84;79.52;20191.88;5015668;28;20280;-66
2023/09/01 06:55:08;;;;;;;6.63;4.55;;;15.10;99.90;;;-141.84;79.61;20134.97;5022922;28;20317;-67
2023/09/01 06:57:37;;;;;;;12.43;5.13;;;15.10;99.90;;;-141.84;80.07;20143.09;5023762;28;20309;-67
2023/09/01 07:00:06;;;;;;;6.38;4.82;;;15.10;99.90;;;-141.84;79.79;20145.13;5023936;28;20210;-66
2023/09/01 07:02:34;;;;;;;7.05;4.85;;;15.20;99.90;;;-141.84;77.75;20200.00;5012665;28;20209;-68
2023/09/01 07:05:05;;;;;;;6.30;5.03;;;15.30;99.90;;;-141.84;78.31;20175.63;5004838;28;20621;-67
2023/09/01 07:07:33;;;;;;;8.27;4.80;;;15.40;99.90;;;-141.84;76.77;20240.66;5004384;28;20266;-67
2023/09/01 07:10:01;;;;;;;6.45;5.05;;;15.40;99.90;;;-141.84;76.56;20252.84;5003987;28;20232;-66
2023/09/01 07:12:29;;;;;;;6.60;4.82;;;15.50;99.90;;;-141.84;78.06;20236.59;5002724;28;20223;-66
2023/09/01 07:14:57;;;;;;;6.55;4.22;;;15.50;99.90;;;-141.84;78.29;20200.00;5003199;28;20241;-66
2023/09/01 07:17:25;;;;;;;8.32;4.82;;;15.50;99.90;;;-141.84;77.64;20226.44;5004287;28;20195;-68
2023/09/01 07:19:54;;;;;;;9.45;4.72;;;15.50;99.90;;;-141.84;77.53;20240.66;5004128;28;20234;-66
2023/09/01 07:22:23;;;;;;;7.43;4.70;;;15.60;99.90;;;-141.84;75.91;20273.19;5003996;28;20346;-67
2023/09/01 07:24:51;;;;;;;7.90;4.57;;;15.60;99.90;;;-141.84;75.25;20250.81;5010003;28;20673;-66
2023/09/01 07:27:19;;;;;;;6.78;4.57;;;15.70;99.90;;;-141.84;75.63;20267.09;5002996;28;20310;-67
2023/09/01 07:29:48;;;;;;;8.52;4.85;;;15.70;99.90;;;-141.84;76.14;20269.13;5004092;28;20734;-66
2023/09/01 07:32:17;;;;;;;6.65;4.32;;;15.80;99.90;;;-141.84;76.09;20297.56;5003339;28;20225;-67
2023/09/01 07:34:47;;;;;;;7.93;4.40;;;15.80;99.90;;;-141.84;75.56;20271.16;5012818;28;20234;-67
2023/09/01 07:37:15;;;;;;;5.97;4.40;;;15.90;99.90;;;-141.84;75.89;20299.59;5023563;28;20671;-67
2023/09/01 07:39:45;;;;;;;6.03;4.70;;;16.00;99.90;;;-141.84;75.79;20301.63;5023707;28;20233;-68
2023/09/01 07:42:14;;;;;;;6.20;4.40;;;16.00;99.90;;;-141.84;74.78;20334.16;5010576;28;20241;-65
2023/09/01 07:44:42;;;;;;;6.90;4.53;;;16.10;99.90;;;-141.84;74.11;20352.44;5015679;28;20288;-65
2023/09/01 07:47:10;;;;;;;7.55;4.43;;;16.10;99.90;;;-141.84;74.38;20387.00;5020093;28;20291;-65
2023/09/01 07:49:38;;;;;;;10.20;5.15;;;16.20;99.90;;;-141.84;74.87;20387.00;5022675;28;20340;-66
2023/09/01 07:52:06;;;;;;;7.97;4.55;;;16.30;99.90;;;-141.84;74.24;20411.41;5012121;28;20313;-64
2023/09/01 07:54:34;;;;;;;8.38;4.72;;;16.40;99.90;;;-141.84;73.42;20419.53;4999158;28;20309;-64
2023/09/01 07:57:04;;;;;;;9.07;4.10;;;16.50;99.90;;;-141.84;73.27;20419.53;5022107;28;20693;-66
2023/09/01 07:59:32;;;;;;;6.45;3.88;;;16.50;99.90;;;-141.84;73.21;20429.69;5022677;28;20574;-67
2023/09/01 08:02:00;;;;;;;4.63;4.07;;;16.60;99.90;;;-141.84;73.71;20458.16;5022182;28;20234;-63
2023/09/01 08:04:29;;;;;;;5.93;4.47;;;16.70;99.90;;;-141.84;72.90;20472.38;5022075;28;20270;-65
2023/09/01 08:06:58;;;;;;;9.48;4.90;;;16.80;99.90;;;-141.84;71.33;20515.06;5022941;28;20652;-63
2023/09/01 08:09:26;;;;;;;6.63;4.50;;;16.80;99.90;;;-141.84;71.08;20555.72;5022319;28;20293;-67
2023/09/01 08:11:55;;;;;;;7.05;3.72;;;16.80;99.90;;;-141.84;71.09;20529.28;5021865;28;20689;-65
2023/09/01 08:14:24;;;;;;;5.50;4.15;;;17.00;99.90;;;-141.84;71.09;20529.28;5023130;28;20596;-64
2023/09/01 08:16:52;;;;;;;3.97;3.30;;;17.00;99.90;;;-141.84;71.46;20557.75;5014401;28;20281;-65
2023/09/01 08:19:20;;;;;;;5.35;3.65;;;17.10;99.90;;;-141.84;70.37;20559.78;5022158;28;20275;-64
2023/09/01 08:21:49;;;;;;;7.93;3.88;;;17.20;99.90;;;-141.84;70.34;20569.94;5022414;28;20672;-66
2023/09/01 08:24:17;;;;;;;4.25;3.10;;;17.20;99.90;;;-141.84;69.92;20590.28;5029195;28;20226;-65
2023/09/01 08:26:45;;;;;;;5.57;4.15;;;17.30;99.90;;;-141.84;68.83;20622.81;5014966;28;20725;-64
2023/09/01 08:29:14;;;;;;;5.75;4.03;;;17.40;99.90;;;-141.84;67.90;20667.53;5021847;28;20846;-61
2023/09/01 08:31:44;;;;;;;7.55;4.18;;;17.40;99.90;;;-141.84;68.02;20669.56;5021989;28;20648;-66
2023/09/01 08:34:12;;;;;;;9.05;4.53;;;17.40;99.90;;;-141.84;67.73;20671.59;5022063;28;20275;-66
2023/09/01 08:36:41;;;;;;;5.00;3.40;;;17.40;99.90;;;-141.84;67.83;20689.88;5014230;28;20343;-65
2023/09/01 08:39:09;;;;;;;4.80;3.65;;;17.50;99.90;;;-141.84;67.16;20695.97;5022565;28;20241;-66
2023/09/01 08:41:41;;;;;;;5.25;3.50;;;17.50;99.90;;;-141.84;67.45;20663.47;5014282;28;20285;-65
2023/09/01 08:44:13;;;;;;;6.32;4.18;;;17.60;99.90;;;-141.84;67.43;20756.97;5002593;28;20278;-64
2023/09/01 08:46:41;;;;;;;6.78;3.70;;;17.70;99.90;;;-141.84;66.40;20738.66;4997382;28;20234;-62
2023/09/01 08:49:11;;;;;;;5.57;3.70;;;17.80;99.90;;;-141.84;65.86;20722.41;5006225;28;20547;-61
2023/09/01 08:51:41;;;;;;;6.38;3.75;;;17.70;99.90;;;-141.84;65.42;20736.63;5023535;28;20625;-67
2023/09/01 08:54:10;;;;;;;5.28;3.60;;;17.70;99.90;;;-141.84;65.94;20712.25;5044311;28;20286;-68
2023/09/01 08:56:38;;;;;;;6.55;3.80;;;17.60;99.90;;;-141.84;65.44;20756.97;5022244;28;20759;-67
2023/09/01 08:59:07;;;;;;;4.55;3.22;;;17.60;99.90;;;-141.84;65.83;20781.38;5024556;28;20590;-64
2023/09/01 09:01:35;;;;;;;6.22;3.35;;;17.60;99.90;;;-141.84;66.21;20759.00;5026138;28;20265;-65
2023/09/01 09:04:04;;;;;;;5.13;3.70;;;17.70;99.90;;;-141.84;65.47;20822.03;5026070;28;20226;-66
2023/09/01 09:06:37;;;;;;;4.95;3.58;;;17.80;99.90;;;-141.84;65.14;20842.34;5018244;28;20593;-61
2023/09/01 09:09:11;;;;;;;5.18;3.47;;;17.90;99.90;;;-141.84;64.38;20858.59;5025804;28;20241;-62
2023/09/01 09:11:41;;;;;;;4.60;3.50;;;17.90;99.90;;;-141.84;64.62;20866.75;5026379;28;20635;-63
2023/09/01 09:14:09;;;;;;;7.20;3.55;;;18.10;99.90;;;-141.84;64.65;20836.25;5032816;28;20236;-65
2023/09/01 09:16:53;;;;;;;5.38;3.65;;;18.10;99.90;;;-141.84;64.39;20858.59;5038035;28;20232;-65
2023/09/01 09:19:22;;;;;;;6.30;3.35;;;18.10;99.90;;;-141.84;64.32;20915.53;5025564;28;20233;-63
2023/09/01 09:22:06;;;;;;;5.03;3.30;;;18.20;99.90;;;-141.84;64.57;20905.38;5025769;28;20222;-63
2023/09/01 09:24:36;;;;;;;7.68;3.95;;;18.30;99.90;;;-141.84;62.94;20941.97;5031212;28;20224;-62
2023/09/01 09:27:06;;;;;;;4.78;3.20;;;18.40;99.90;;;-141.84;63.82;20956.19;5045092;28;20298;-62
2023/09/01 09:29:41;;;;;;;5.35;3.40;;;18.50;99.90;;;-141.84;62.06;21011.09;5045864;28;20226;-64
2023/09/01 09:32:21;;;;;;;5.75;3.33;;;18.60;99.90;;;-141.84;61.34;21033.44;5045277;28;20712;-66
2023/09/01 09:35:08;;;;;;;4.45;3.05;;;18.70;99.90;;;-141.84;61.01;21090.38;5037535;28;20249;-64
2023/09/01 09:37:41;;;;;;;5.60;3.40;;;18.80;99.90;;;-141.84;61.83;21047.69;5045417;28;20237;-65
2023/09/01 09:40:15;;;;;;;5.93;2.95;;;18.80;99.90;;;-141.84;61.73;21049.72;5045064;28;20253;-68
2023/09/01 09:42:46;;;;;;;4.55;3.35;;;18.70;99.90;;;-141.84;61.10;21082.25;5021087;28;20232;-64
2023/09/01 09:45:28;;;;;;;5.85;3.45;;;18.80;99.90;;;-141.84;60.95;21110.69;5024106;28;20233;-63
2023/09/01 09:47:59;;;;;;;4.63;3.97;;;18.90;99.90;;;-141.84;62.05;21137.13;5024630;28;20432;-64
2023/09/01 09:50:29;;;;;;;4.70;3.55;;;19.00;99.90;;;-141.84;61.59;21157.47;5025014;28;20616;-63
2023/09/01 09:53:04;;;;;;;4.88;3.22;;;19.10;99.90;;;-141.84;60.35;21202.19;5024776;28;20238;-64
2023/09/01 09:55:34;;;;;;;5.38;3.35;;;19.20;99.90;;;-141.84;60.02;21214.38;5011929;28;20272;-65
2023/09/01 09:58:07;;;;;;;4.40;3.05;;;19.20;99.90;;;-141.84;61.42;21114.75;5025101;28;20283;-66
2023/09/01 10:00:41;;;;;;;4.13;3.00;;;19.10;99.90;;;-141.84;59.96;21200.16;5017859;28;20221;-66
2023/09/01 10:03:10;;;;;;;5.78;3.53;;;19.20;99.90;;;-141.84;58.91;21206.25;5024484;28;20259;-65
2023/09/01 10:05:41;;;;;;;4.60;3.42;;;19.30;99.90;;;-141.84;57.79;21265.22;5025238;28;20206;-65
2023/09/01 10:08:14;;;;;;;4.93;3.40;;;19.50;99.90;;;-141.84;57.81;21350.59;5024740;28;20316;-62
2023/09/01 10:10:43;;;;;;;4.20;3.40;;;19.70;99.90;;;-141.84;58.61;21354.66;5017831;28;20295;-64
2023/09/01 10:13:16;;;;;;;5.32;3.80;;;19.80;99.90;;;-141.84;57.31;21368.91;5024014;28;20233;-64
2023/09/01 10:15:46;;;;;;;3.83;3.10;;;19.90;99.90;;;-141.84;56.77;21417.69;5024440;28;20722;-63